sensor_id;sensor_type;location;lat;lon;timestamp;pressure;altitude;pressure_sealevel;temperature;humidity
9335;BME280;4706;41.844;26.082;2023-08-20T00:00:18;100763.97;;;27.69;49.59
9335;BME280;4706;41.844;26.082;2023-08-20T00:02:46;100747.44;;;27.60;49.98
9335;BME280;4706;41.844;26.082;2023-08-20T00:05:12;100752.28;;;27.64;49.97
9335;BME280;4706;41.844;26.082;2023-08-20T00:07:39;100762.75;;;27.67;49.95
9335;BME280;4706;41.844;26.082;2023-08-20T00:10:06;100755.88;;;27.68;49.96
9335;BME280;4706;41.844;26.082;2023-08-20T00:12:32;100761.63;;;27.57;49.87
9335;BME280;4706;41.844;26.082;2023-08-20T00:14:59;100749.16;;;27.51;50.22
9335;BME280;4706;41.844;26.082;2023-08-20T00:17:35;100755.25;;;27.46;50.41
9335;BME280;4706;41.844;26.082;2023-08-20T00:20:01;100751.19;;;27.47;50.31
9335;BME280;4706;41.844;26.082;2023-08-20T00:22:29;100760.41;;;27.54;50.30
9335;BME280;4706;41.844;26.082;2023-08-20T00:24:55;100749.50;;;27.56;49.85
9335;BME280;4706;41.844;26.082;2023-08-20T00:27:21;100753.50;;;27.63;49.99
9335;BME280;4706;41.844;26.082;2023-08-20T00:29:47;100744.69;;;27.57;50.08
9335;BME280;4706;41.844;26.082;2023-08-20T00:32:14;100755.91;;;27.64;49.63
9335;BME280;4706;41.844;26.082;2023-08-20T00:34:40;100745.88;;;27.56;49.66
9335;BME280;4706;41.844;26.082;2023-08-20T00:37:05;100747.06;;;27.58;49.71
9335;BME280;4706;41.844;26.082;2023-08-20T00:39:31;100746.66;;;27.60;49.75
9335;BME280;4706;41.844;26.082;2023-08-20T00:41:57;100749.91;;;27.55;49.86
9335;BME280;4706;41.844;26.082;2023-08-20T00:44:22;100744.28;;;27.51;49.71
9335;BME280;4706;41.844;26.082;2023-08-20T00:46:48;100735.84;;;27.44;49.10
9335;BME280;4706;41.844;26.082;2023-08-20T00:49:14;100738.34;;;27.35;49.39
9335;BME280;4706;41.844;26.082;2023-08-20T00:51:39;100751.25;;;27.32;49.84
9335;BME280;4706;41.844;26.082;2023-08-20T00:54:05;100744.00;;;27.31;49.84
9335;BME280;4706;41.844;26.082;2023-08-20T00:56:31;100740.44;;;27.20;50.19
9335;BME280;4706;41.844;26.082;2023-08-20T00:58:56;100746.88;;;27.21;49.90
9335;BME280;4706;41.844;26.082;2023-08-20T01:01:23;100742.47;;;27.20;50.05
9335;BME280;4706;41.844;26.082;2023-08-20T01:03:48;100735.16;;;27.26;50.06
9335;BME280;4706;41.844;26.082;2023-08-20T01:06:20;100737.53;;;27.34;49.59
9335;BME280;4706;41.844;26.082;2023-08-20T01:08:56;100735.91;;;27.33;49.49
9335;BME280;4706;41.844;26.082;2023-08-20T01:11:34;100731.97;;;27.17;49.84
9335;BME280;4706;41.844;26.082;2023-08-20T01:14:02;100737.22;;;27.07;50.15
9335;BME280;4706;41.844;26.082;2023-08-20T01:16:39;100724.75;;;27.01;50.36
9335;BME280;4706;41.844;26.082;2023-08-20T01:19:05;100729.19;;;27.02;50.37
9335;BME280;4706;41.844;26.082;2023-08-20T01:21:39;100724.75;;;27.05;50.57
9335;BME280;4706;41.844;26.082;2023-08-20T01:24:46;100719.13;;;26.98;50.77
9335;BME280;4706;41.844;26.082;2023-08-20T01:29:44;100722.41;;;26.85;51.16
9335;BME280;4706;41.844;26.082;2023-08-20T01:32:11;100720.41;;;26.79;51.26
9335;BME280;4706;41.844;26.082;2023-08-20T01:34:38;100716.72;;;26.89;51.21
9335;BME280;4706;41.844;26.082;2023-08-20T01:37:03;100717.09;;;26.98;51.19
9335;BME280;4706;41.844;26.082;2023-08-20T01:39:29;100718.34;;;26.97;51.36
9335;BME280;4706;41.844;26.082;2023-08-20T01:41:54;100719.50;;;27.00;51.01
9335;BME280;4706;41.844;26.082;2023-08-20T01:44:20;100719.09;;;27.05;50.99
9335;BME280;4706;41.844;26.082;2023-08-20T01:46:45;100717.47;;;27.07;50.90
9335;BME280;4706;41.844;26.082;2023-08-20T01:49:11;100720.28;;;27.11;51.04
9335;BME280;4706;41.844;26.082;2023-08-20T01:51:36;100720.69;;;27.13;50.79
9335;BME280;4706;41.844;26.082;2023-08-20T01:54:02;100718.25;;;27.19;51.05
9335;BME280;4706;41.844;26.082;2023-08-20T01:56:28;100716.59;;;27.25;50.72
9335;BME280;4706;41.844;26.082;2023-08-20T01:58:53;100709.38;;;27.20;50.78
9335;BME280;4706;41.844;26.082;2023-08-20T02:01:19;100717.41;;;27.25;50.73
9335;BME280;4706;41.844;26.082;2023-08-20T02:03:44;100714.19;;;27.23;50.99
9335;BME280;4706;41.844;26.082;2023-08-20T02:06:10;100713.84;;;27.14;51.22
9335;BME280;4706;41.844;26.082;2023-08-20T02:08:35;100710.63;;;27.05;51.68
9335;BME280;4706;41.844;26.082;2023-08-20T02:11:02;100714.25;;;27.05;51.69
9335;BME280;4706;41.844;26.082;2023-08-20T02:13:28;100719.47;;;27.18;51.33
9335;BME280;4706;41.844;26.082;2023-08-20T02:16:02;100717.88;;;27.13;51.57
9335;BME280;4706;41.844;26.082;2023-08-20T02:18:28;100714.25;;;27.09;51.29
9335;BME280;4706;41.844;26.082;2023-08-20T02:20:54;100716.22;;;27.19;51.30
9335;BME280;4706;41.844;26.082;2023-08-20T02:23:20;100713.03;;;27.06;51.76
9335;BME280;4706;41.844;26.082;2023-08-20T02:25:46;100717.09;;;26.98;51.72
9335;BME280;4706;41.844;26.082;2023-08-20T02:28:12;100699.38;;;26.94;51.70
9335;BME280;4706;41.844;26.082;2023-08-20T02:30:42;100715.06;;;27.06;51.68
9335;BME280;4706;41.844;26.082;2023-08-20T02:33:08;100688.50;;;26.89;51.85
9335;BME280;4706;41.844;26.082;2023-08-20T02:35:34;100709.84;;;27.04;51.26
9335;BME280;4706;41.844;26.082;2023-08-20T02:37:59;100712.25;;;27.02;51.64
9335;BME280;4706;41.844;26.082;2023-08-20T02:40:25;100705.78;;;27.05;51.05
9335;BME280;4706;41.844;26.082;2023-08-20T02:42:50;100713.41;;;27.19;51.03
9335;BME280;4706;41.844;26.082;2023-08-20T02:45:16;100700.53;;;27.04;50.96
9335;BME280;4706;41.844;26.082;2023-08-20T02:47:41;100708.63;;;27.02;50.75
9335;BME280;4706;41.844;26.082;2023-08-20T02:50:07;100704.19;;;27.01;51.05
9335;BME280;4706;41.844;26.082;2023-08-20T02:52:32;100705.78;;;27.05;50.49
9335;BME280;4706;41.844;26.082;2023-08-20T02:54:58;100711.47;;;26.98;50.91
9335;BME280;4706;41.844;26.082;2023-08-20T02:57:23;100710.28;;;26.88;50.86
9335;BME280;4706;41.844;26.082;2023-08-20T02:59:50;100720.38;;;26.93;50.88
9335;BME280;4706;41.844;26.082;2023-08-20T03:02:15;100711.84;;;26.97;50.27
9335;BME280;4706;41.844;26.082;2023-08-20T03:04:41;100719.16;;;26.91;50.67
9335;BME280;4706;41.844;26.082;2023-08-20T03:07:06;100720.44;;;26.75;51.12
9335;BME280;4706;41.844;26.082;2023-08-20T03:09:32;100705.91;;;26.70;51.20
9335;BME280;4706;41.844;26.082;2023-08-20T03:11:58;100717.59;;;26.79;51.42
9335;BME280;4706;41.844;26.082;2023-08-20T03:14:23;100714.34;;;26.77;51.03
9335;BME280;4706;41.844;26.082;2023-08-20T03:16:49;100692.25;;;26.54;51.45
9335;BME280;4706;41.844;26.082;2023-08-20T03:19:15;100722.84;;;26.70;51.53
9335;BME280;4706;41.844;26.082;2023-08-20T03:21:41;100726.09;;;26.64;51.24
9335;BME280;4706;41.844;26.082;2023-08-20T03:24:07;100731.75;;;26.61;51.48
9335;BME280;4706;41.844;26.082;2023-08-20T03:26:33;100736.97;;;26.66;51.54
9335;BME280;4706;41.844;26.082;2023-08-20T03:28:58;100734.16;;;26.62;51.73
9335;BME280;4706;41.844;26.082;2023-08-20T03:31:24;100732.94;;;26.67;51.59
9335;BME280;4706;41.844;26.082;2023-08-20T03:33:50;100728.53;;;26.45;51.58
9335;BME280;4706;41.844;26.082;2023-08-20T03:36:15;100733.78;;;26.50;51.73
9335;BME280;4706;41.844;26.082;2023-08-20T03:38:41;100727.34;;;26.49;51.78
9335;BME280;4706;41.844;26.082;2023-08-20T03:41:07;100732.56;;;26.58;51.29
9335;BME280;4706;41.844;26.082;2023-08-20T03:43:32;100737.41;;;26.57;51.45
9335;BME280;4706;41.844;26.082;2023-08-20T03:45:58;100728.56;;;26.48;51.86
9335;BME280;4706;41.844;26.082;2023-08-20T03:48:24;100737.03;;;26.48;51.59
9335;BME280;4706;41.844;26.082;2023-08-20T03:50:49;100737.41;;;26.54;51.77
9335;BME280;4706;41.844;26.082;2023-08-20T03:53:15;100732.56;;;26.51;51.77
9335;BME280;4706;41.844;26.082;2023-08-20T03:55:40;100732.53;;;26.61;51.51
9335;BME280;4706;41.844;26.082;2023-08-20T03:58:07;100735.34;;;26.65;51.24
9335;BME280;4706;41.844;26.082;2023-08-20T04:00:34;100732.09;;;26.70;51.32
9335;BME280;4706;41.844;26.082;2023-08-20T04:03:00;100736.13;;;26.73;51.38
9335;BME280;4706;41.844;26.082;2023-08-20T04:05:26;100734.09;;;26.80;50.75
9335;BME280;4706;41.844;26.082;2023-08-20T04:07:51;100726.06;;;26.79;50.74
9335;BME280;4706;41.844;26.082;2023-08-20T04:10:17;100729.66;;;26.86;50.89
9335;BME280;4706;41.844;26.082;2023-08-20T04:12:42;100737.31;;;26.93;50.72
9335;BME280;4706;41.844;26.082;2023-08-20T04:15:08;100732.03;;;26.99;50.60
9335;BME280;4706;41.844;26.082;2023-08-20T04:17:34;100729.59;;;27.04;50.81
9335;BME280;4706;41.844;26.082;2023-08-20T04:19:59;100723.09;;;27.07;50.48
9335;BME280;4706;41.844;26.082;2023-08-20T04:22:25;100732.78;;;27.10;50.16
9335;BME280;4706;41.844;26.082;2023-08-20T04:24:50;100724.31;;;27.14;49.91
9335;BME280;4706;41.844;26.082;2023-08-20T04:27:16;100724.75;;;27.12;50.21
9335;BME280;4706;41.844;26.082;2023-08-20T04:29:41;100719.03;;;27.19;50.43
9335;BME280;4706;41.844;26.082;2023-08-20T04:32:07;100726.28;;;27.27;50.30
9335;BME280;4706;41.844;26.082;2023-08-20T04:34:32;100730.25;;;27.37;49.87
9335;BME280;4706;41.844;26.082;2023-08-20T04:36:58;100734.59;;;27.52;49.90
9335;BME280;4706;41.844;26.082;2023-08-20T04:39:24;100732.09;;;27.69;49.18
9335;BME280;4706;41.844;26.082;2023-08-20T04:41:49;100730.03;;;27.76;49.02
9335;BME280;4706;41.844;26.082;2023-08-20T04:44:15;100735.97;;;27.89;48.80
9335;BME280;4706;41.844;26.082;2023-08-20T04:46:41;100736.28;;;28.02;48.73
9335;BME280;4706;41.844;26.082;2023-08-20T04:49:07;100737.34;;;28.19;47.88
9335;BME280;4706;41.844;26.082;2023-08-20T04:51:32;100730.81;;;28.29;47.79
9335;BME280;4706;41.844;26.082;2023-08-20T04:53:58;100741.66;;;28.38;47.64
9335;BME280;4706;41.844;26.082;2023-08-20T04:56:23;100734.22;;;28.51;47.41
9335;BME280;4706;41.844;26.082;2023-08-20T04:58:49;100733.28;;;28.65;47.26
9335;BME280;4706;41.844;26.082;2023-08-20T05:01:14;100741.66;;;28.75;46.94
9335;BME280;4706;41.844;26.082;2023-08-20T05:03:40;100728.97;;;28.87;45.84
9335;BME280;4706;41.844;26.082;2023-08-20T05:06:05;100737.78;;;28.96;46.27
9335;BME280;4706;41.844;26.082;2023-08-20T05:08:31;100748.13;;;29.10;46.47
9335;BME280;4706;41.844;26.082;2023-08-20T05:10:56;100751.19;;;29.26;45.64
9335;BME280;4706;41.844;26.082;2023-08-20T05:13:22;100742.94;;;29.36;45.57
9335;BME280;4706;41.844;26.082;2023-08-20T05:15:49;100753.28;;;29.49;45.42
9335;BME280;4706;41.844;26.082;2023-08-20T05:18:14;100754.81;;;29.58;44.55
9335;BME280;4706;41.844;26.082;2023-08-20T05:20:40;100747.13;;;29.58;45.01
9335;BME280;4706;41.844;26.082;2023-08-20T05:23:06;100750.66;;;29.66;44.75
9335;BME280;4706;41.844;26.082;2023-08-20T05:25:31;100752.13;;;29.74;44.50
9335;BME280;4706;41.844;26.082;2023-08-20T05:27:56;100754.00;;;29.84;44.36
9335;BME280;4706;41.844;26.082;2023-08-20T05:30:22;100757.88;;;29.94;43.33
9335;BME280;4706;41.844;26.082;2023-08-20T05:32:48;100744.53;;;29.94;43.61
9335;BME280;4706;41.844;26.082;2023-08-20T05:35:13;100751.94;;;30.12;43.51
9335;BME280;4706;41.844;26.082;2023-08-20T05:37:38;100749.31;;;30.24;43.15
9335;BME280;4706;41.844;26.082;2023-08-20T05:40:04;100747.97;;;30.33;43.17
9335;BME280;4706;41.844;26.082;2023-08-20T05:42:30;100749.66;;;30.50;42.78
9335;BME280;4706;41.844;26.082;2023-08-20T05:44:55;100742.69;;;30.55;42.59
9335;BME280;4706;41.844;26.082;2023-08-20T05:47:21;100744.50;;;30.65;42.15
9335;BME280;4706;41.844;26.082;2023-08-20T05:49:46;100745.44;;;30.82;42.01
9335;BME280;4706;41.844;26.082;2023-08-20T05:52:12;100745.88;;;31.00;40.96
9335;BME280;4706;41.844;26.082;2023-08-20T05:54:37;100732.81;;;31.03;41.86
9335;BME280;4706;41.844;26.082;2023-08-20T05:57:03;100748.31;;;31.18;41.00
9335;BME280;4706;41.844;26.082;2023-08-20T05:59:28;100746.75;;;31.37;40.85
9335;BME280;4706;41.844;26.082;2023-08-20T06:01:54;100745.34;;;31.45;40.17
9335;BME280;4706;41.844;26.082;2023-08-20T06:04:20;100744.28;;;31.55;40.16
9335;BME280;4706;41.844;26.082;2023-08-20T06:06:46;100750.00;;;31.72;39.78
9335;BME280;4706;41.844;26.082;2023-08-20T06:09:11;100738.19;;;31.73;39.34
9335;BME280;4706;41.844;26.082;2023-08-20T06:11:36;100744.06;;;31.82;39.88
9335;BME280;4706;41.844;26.082;2023-08-20T06:14:02;100745.16;;;31.88;39.69
9335;BME280;4706;41.844;26.082;2023-08-20T06:16:28;100739.19;;;31.99;39.29
9335;BME280;4706;41.844;26.082;2023-08-20T06:18:54;100746.13;;;32.14;39.17
9335;BME280;4706;41.844;26.082;2023-08-20T06:21:19;100747.44;;;32.26;38.74
9335;BME280;4706;41.844;26.082;2023-08-20T06:23:44;100740.69;;;32.36;38.75
9335;BME280;4706;41.844;26.082;2023-08-20T06:26:10;100744.56;;;32.59;38.24
9335;BME280;4706;41.844;26.082;2023-08-20T06:28:36;100745.31;;;32.76;37.49
9335;BME280;4706;41.844;26.082;2023-08-20T06:31:02;100749.03;;;32.89;37.79
9335;BME280;4706;41.844;26.082;2023-08-20T06:33:27;100747.75;;;33.06;37.46
9335;BME280;4706;41.844;26.082;2023-08-20T06:35:53;100751.97;;;33.27;37.79
9335;BME280;4706;41.844;26.082;2023-08-20T06:38:18;100741.22;;;33.48;36.44
9335;BME280;4706;41.844;26.082;2023-08-20T06:40:44;100738.69;;;33.63;36.17
9335;BME280;4706;41.844;26.082;2023-08-20T06:43:09;100735.50;;;33.73;36.24
9335;BME280;4706;41.844;26.082;2023-08-20T06:45:35;100741.88;;;33.90;35.65
9335;BME280;4706;41.844;26.082;2023-08-20T06:48:00;100734.78;;;34.07;35.40
9335;BME280;4706;41.844;26.082;2023-08-20T06:50:25;100719.94;;;34.13;35.58
9335;BME280;4706;41.844;26.082;2023-08-20T06:52:51;100739.66;;;34.32;34.75
9335;BME280;4706;41.844;26.082;2023-08-20T06:55:17;100732.16;;;34.48;34.35
9335;BME280;4706;41.844;26.082;2023-08-20T06:57:42;100736.00;;;34.67;34.18
9335;BME280;4706;41.844;26.082;2023-08-20T07:00:08;100730.50;;;34.94;33.82
9335;BME280;4706;41.844;26.082;2023-08-20T07:02:33;100730.69;;;35.22;33.40
9335;BME280;4706;41.844;26.082;2023-08-20T07:04:59;100730.31;;;35.42;32.11
9335;BME280;4706;41.844;26.082;2023-08-20T07:07:24;100732.28;;;35.54;32.20
9335;BME280;4706;41.844;26.082;2023-08-20T07:09:50;100726.47;;;35.67;32.53
9335;BME280;4706;41.844;26.082;2023-08-20T07:12:15;100717.91;;;35.76;30.26
9335;BME280;4706;41.844;26.082;2023-08-20T07:14:41;100731.00;;;35.95;30.19
9335;BME280;4706;41.844;26.082;2023-08-20T07:17:07;100724.25;;;36.20;30.89
9335;BME280;4706;41.844;26.082;2023-08-20T07:19:32;100721.69;;;36.41;30.32
9335;BME280;4706;41.844;26.082;2023-08-20T07:21:58;100718.22;;;36.55;30.35
9335;BME280;4706;41.844;26.082;2023-08-20T07:24:23;100724.13;;;36.61;29.09
9335;BME280;4706;41.844;26.082;2023-08-20T07:26:53;100723.63;;;36.81;28.80
9335;BME280;4706;41.844;26.082;2023-08-20T07:29:25;100721.56;;;36.90;27.46
9335;BME280;4706;41.844;26.082;2023-08-20T07:31:50;100721.72;;;36.96;27.72
9335;BME280;4706;41.844;26.082;2023-08-20T07:34:15;100719.94;;;37.08;27.29
9335;BME280;4706;41.844;26.082;2023-08-20T07:36:41;100726.47;;;37.08;27.13
9335;BME280;4706;41.844;26.082;2023-08-20T07:39:06;100718.78;;;37.24;26.94
9335;BME280;4706;41.844;26.082;2023-08-20T07:41:33;100711.38;;;37.41;27.09
9335;BME280;4706;41.844;26.082;2023-08-20T07:43:59;100713.16;;;37.48;26.83
9335;BME280;4706;41.844;26.082;2023-08-20T07:46:25;100716.47;;;37.55;25.54
9335;BME280;4706;41.844;26.082;2023-08-20T07:48:50;100710.56;;;37.50;26.07
9335;BME280;4706;41.844;26.082;2023-08-20T07:51:16;100719.84;;;37.45;25.51
9335;BME280;4706;41.844;26.082;2023-08-20T07:53:41;100701.22;;;37.31;25.38
9335;BME280;4706;41.844;26.082;2023-08-20T07:56:07;100704.91;;;37.31;26.19
9335;BME280;4706;41.844;26.082;2023-08-20T07:58:34;100693.38;;;37.40;25.37
9335;BME280;4706;41.844;26.082;2023-08-20T08:00:59;100709.31;;;37.51;25.99
9335;BME280;4706;41.844;26.082;2023-08-20T08:03:26;100699.38;;;37.61;25.44
9335;BME280;4706;41.844;26.082;2023-08-20T08:05:54;100702.84;;;37.23;25.59
9335;BME280;4706;41.844;26.082;2023-08-20T08:08:21;100696.38;;;37.13;26.52
9335;BME280;4706;41.844;26.082;2023-08-20T08:10:47;100694.22;;;37.32;26.21
9335;BME280;4706;41.844;26.082;2023-08-20T08:13:14;100692.09;;;36.99;25.96
9335;BME280;4706;41.844;26.082;2023-08-20T08:15:40;100683.34;;;36.29;26.52
9335;BME280;4706;41.844;26.082;2023-08-20T08:18:07;100692.78;;;36.57;27.05
9335;BME280;4706;41.844;26.082;2023-08-20T08:20:33;100679.19;;;36.85;26.71
9335;BME280;4706;41.844;26.082;2023-08-20T08:22:59;100682.78;;;37.23;26.08
9335;BME280;4706;41.844;26.082;2023-08-20T08:25:25;100692.22;;;37.05;25.75
9335;BME280;4706;41.844;26.082;2023-08-20T08:27:50;100695.91;;;36.87;26.37
9335;BME280;4706;41.844;26.082;2023-08-20T08:30:16;100696.69;;;37.06;26.84
9335;BME280;4706;41.844;26.082;2023-08-20T08:32:41;100687.38;;;37.29;26.18
9335;BME280;4706;41.844;26.082;2023-08-20T08:35:07;100685.94;;;37.67;26.26
9335;BME280;4706;41.844;26.082;2023-08-20T08:37:34;100675.66;;;38.08;25.40
9335;BME280;4706;41.844;26.082;2023-08-20T08:39:59;100689.22;;;38.08;25.24
9335;BME280;4706;41.844;26.082;2023-08-20T08:42:25;100673.25;;;37.83;26.46
9335;BME280;4706;41.844;26.082;2023-08-20T08:44:50;100681.94;;;38.22;25.38
9335;BME280;4706;41.844;26.082;2023-08-20T08:47:18;100678.75;;;38.58;25.65
9335;BME280;4706;41.844;26.082;2023-08-20T08:49:45;100664.81;;;38.81;25.03
9335;BME280;4706;41.844;26.082;2023-08-20T08:52:12;100675.16;;;39.02;24.06
9335;BME280;4706;41.844;26.082;2023-08-20T08:54:38;100671.63;;;38.54;24.75
9335;BME280;4706;41.844;26.082;2023-08-20T08:57:04;100672.91;;;38.53;24.76
9335;BME280;4706;41.844;26.082;2023-08-20T08:59:30;100659.06;;;38.81;25.21
9335;BME280;4706;41.844;26.082;2023-08-20T09:01:55;100663.53;;;39.26;25.09
9335;BME280;4706;41.844;26.082;2023-08-20T09:04:23;100657.69;;;39.56;24.40
9335;BME280;4706;41.844;26.082;2023-08-20T09:06:50;100662.59;;;39.50;23.29
9335;BME280;4706;41.844;26.082;2023-08-20T09:09:20;100639.47;;;39.44;24.08
9335;BME280;4706;41.844;26.082;2023-08-20T09:11:47;100664.44;;;39.53;23.19
9335;BME280;4706;41.844;26.082;2023-08-20T09:14:24;100656.94;;;39.41;23.76
9335;BME280;4706;41.844;26.082;2023-08-20T09:16:59;100649.94;;;39.12;23.47
9335;BME280;4706;41.844;26.082;2023-08-20T09:19:28;100652.38;;;39.19;23.48
9335;BME280;4706;41.844;26.082;2023-08-20T09:21:55;100653.41;;;39.31;23.89
9335;BME280;4706;41.844;26.082;2023-08-20T09:24:44;100651.72;;;39.59;23.37
9335;BME280;4706;41.844;26.082;2023-08-20T09:27:11;100644.59;;;39.55;23.64
9335;BME280;4706;41.844;26.082;2023-08-20T09:29:49;100635.22;;;39.75;23.21
9335;BME280;4706;41.844;26.082;2023-08-20T09:34:41;100638.84;;;39.05;22.34
9335;BME280;4706;41.844;26.082;2023-08-20T09:37:11;100641.44;;;38.88;23.09
9335;BME280;4706;41.844;26.082;2023-08-20T09:39:37;100644.78;;;39.16;23.24
9335;BME280;4706;41.844;26.082;2023-08-20T09:42:04;100638.66;;;39.08;23.40
9335;BME280;4706;41.844;26.082;2023-08-20T09:44:35;100633.97;;;38.67;23.21
9335;BME280;4706;41.844;26.082;2023-08-20T09:47:07;100631.00;;;38.76;23.68
9335;BME280;4706;41.844;26.082;2023-08-20T09:49:44;100630.09;;;39.29;23.03
9335;BME280;4706;41.844;26.082;2023-08-20T09:52:11;100627.31;;;39.70;22.29
9335;BME280;4706;41.844;26.082;2023-08-20T09:57:40;100617.66;;;39.73;22.13
9335;BME280;4706;41.844;26.082;2023-08-20T10:00:08;100620.84;;;39.60;23.10
9335;BME280;4706;41.844;26.082;2023-08-20T10:02:38;100619.44;;;39.91;22.95
9335;BME280;4706;41.844;26.082;2023-08-20T10:05:05;100608.72;;;39.91;21.86
9335;BME280;4706;41.844;26.082;2023-08-20T10:07:31;100617.03;;;39.84;22.69
9335;BME280;4706;41.844;26.082;2023-08-20T10:10:00;100619.69;;;39.87;22.89
9335;BME280;4706;41.844;26.082;2023-08-20T10:12:29;100618.22;;;39.97;22.97
9335;BME280;4706;41.844;26.082;2023-08-20T10:14:59;100608.69;;;40.32;22.68
9335;BME280;4706;41.844;26.082;2023-08-20T10:17:27;100624.03;;;40.70;22.30
9335;BME280;4706;41.844;26.082;2023-08-20T10:19:54;100607.63;;;40.82;22.07
9335;BME280;4706;41.844;26.082;2023-08-20T10:22:22;100596.84;;;41.08;21.54
9335;BME280;4706;41.844;26.082;2023-08-20T10:24:52;100597.00;;;41.36;21.31
9335;BME280;4706;41.844;26.082;2023-08-20T10:27:30;100590.66;;;40.95;21.29
9335;BME280;4706;41.844;26.082;2023-08-20T10:29:58;100607.84;;;40.78;21.14
9335;BME280;4706;41.844;26.082;2023-08-20T10:32:43;100592.91;;;40.27;21.55
9335;BME280;4706;41.844;26.082;2023-08-20T10:35:09;100587.78;;;40.37;21.81
9335;BME280;4706;41.844;26.082;2023-08-20T10:37:34;100590.38;;;40.35;22.01
9335;BME280;4706;41.844;26.082;2023-08-20T10:40:01;100581.19;;;40.11;22.27
9335;BME280;4706;41.844;26.082;2023-08-20T10:42:28;100590.44;;;40.15;22.34
9335;BME280;4706;41.844;26.082;2023-08-20T10:45:01;100575.91;;;40.09;21.51
9335;BME280;4706;41.844;26.082;2023-08-20T10:47:41;100584.25;;;40.53;21.36
9335;BME280;4706;41.844;26.082;2023-08-20T10:50:08;100569.72;;;40.63;21.58
9335;BME280;4706;41.844;26.082;2023-08-20T10:52:47;100574.78;;;41.05;21.99
9335;BME280;4706;41.844;26.082;2023-08-20T10:55:13;100568.75;;;41.46;20.89
9335;BME280;4706;41.844;26.082;2023-08-20T10:57:40;100571.50;;;41.78;20.61
9335;BME280;4706;41.844;26.082;2023-08-20T11:00:07;100561.34;;;41.88;20.30
9335;BME280;4706;41.844;26.082;2023-08-20T11:02:38;100554.81;;;42.04;20.15
9335;BME280;4706;41.844;26.082;2023-08-20T11:05:04;100558.31;;;42.36;19.72
9335;BME280;4706;41.844;26.082;2023-08-20T11:07:40;100556.47;;;42.44;19.60
9335;BME280;4706;41.844;26.082;2023-08-20T11:10:07;100557.19;;;42.06;19.56
9335;BME280;4706;41.844;26.082;2023-08-20T11:12:33;100550.94;;;41.53;20.60
9335;BME280;4706;41.844;26.082;2023-08-20T11:15:02;100560.47;;;41.76;20.88
9335;BME280;4706;41.844;26.082;2023-08-20T11:17:28;100544.09;;;41.51;20.20
9335;BME280;4706;41.844;26.082;2023-08-20T11:19:54;100547.28;;;41.64;20.80
9335;BME280;4706;41.844;26.082;2023-08-20T11:22:20;100540.25;;;41.82;20.62
9335;BME280;4706;41.844;26.082;2023-08-20T11:24:46;100539.88;;;42.17;20.18
9335;BME280;4706;41.844;26.082;2023-08-20T11:27:12;100537.81;;;42.45;19.77
9335;BME280;4706;41.844;26.082;2023-08-20T11:29:41;100535.69;;;42.29;19.74
9335;BME280;4706;41.844;26.082;2023-08-20T11:32:07;100533.22;;;41.88;20.45
9335;BME280;4706;41.844;26.082;2023-08-20T11:34:34;100525.16;;;41.44;20.27
9335;BME280;4706;41.844;26.082;2023-08-20T11:37:01;100520.72;;;41.48;20.60
9335;BME280;4706;41.844;26.082;2023-08-20T11:39:29;100517.94;;;41.77;21.04
9335;BME280;4706;41.844;26.082;2023-08-20T11:41:54;100514.78;;;41.74;19.96
9335;BME280;4706;41.844;26.082;2023-08-20T11:44:21;100510.22;;;41.51;19.85
9335;BME280;4706;41.844;26.082;2023-08-20T11:46:47;100515.53;;;41.10;20.81
9335;BME280;4706;41.844;26.082;2023-08-20T11:49:13;100517.59;;;40.72;20.66
9335;BME280;4706;41.844;26.082;2023-08-20T11:51:41;100517.56;;;40.66;20.59
9335;BME280;4706;41.844;26.082;2023-08-20T11:54:08;100514.00;;;40.19;21.06
9335;BME280;4706;41.844;26.082;2023-08-20T11:56:34;100509.13;;;40.31;21.55
9335;BME280;4706;41.844;26.082;2023-08-20T11:59:00;100508.63;;;40.64;21.58
9335;BME280;4706;41.844;26.082;2023-08-20T12:01:31;100498.44;;;41.06;20.99
9335;BME280;4706;41.844;26.082;2023-08-20T12:04:04;100493.28;;;41.21;21.13
9335;BME280;4706;41.844;26.082;2023-08-20T12:06:30;100481.97;;;41.18;20.94
9335;BME280;4706;41.844;26.082;2023-08-20T12:08:57;100515.38;;;41.36;20.84
9335;BME280;4706;41.844;26.082;2023-08-20T12:11:30;100499.13;;;40.90;21.44
9335;BME280;4706;41.844;26.082;2023-08-20T12:13:56;100499.75;;;41.05;21.29
9335;BME280;4706;41.844;26.082;2023-08-20T12:16:22;100489.84;;;41.17;21.20
9335;BME280;4706;41.844;26.082;2023-08-20T12:18:49;100487.75;;;41.18;21.57
9335;BME280;4706;41.844;26.082;2023-08-20T12:21:15;100489.44;;;40.93;21.01
9335;BME280;4706;41.844;26.082;2023-08-20T12:23:41;100488.31;;;40.47;21.40
9335;BME280;4706;41.844;26.082;2023-08-20T12:26:06;100488.63;;;40.55;21.74
9335;BME280;4706;41.844;26.082;2023-08-20T12:28:33;100468.50;;;40.29;21.87
9335;BME280;4706;41.844;26.082;2023-08-20T12:30:59;100474.31;;;40.66;22.23
9335;BME280;4706;41.844;26.082;2023-08-20T12:33:24;100477.91;;;40.93;21.58
9335;BME280;4706;41.844;26.082;2023-08-20T12:35:54;100476.19;;;41.18;21.17
9335;BME280;4706;41.844;26.082;2023-08-20T12:38:19;100487.50;;;41.16;20.77
9335;BME280;4706;41.844;26.082;2023-08-20T12:40:45;100486.31;;;40.59;21.35
9335;BME280;4706;41.844;26.082;2023-08-20T12:43:11;100491.44;;;40.49;21.37
9335;BME280;4706;41.844;26.082;2023-08-20T12:45:36;100468.03;;;40.10;21.49
9335;BME280;4706;41.844;26.082;2023-08-20T12:48:03;100474.38;;;39.88;21.58
9335;BME280;4706;41.844;26.082;2023-08-20T12:50:29;100473.06;;;39.89;22.31
9335;BME280;4706;41.844;26.082;2023-08-20T12:52:54;100473.94;;;39.95;22.11
9335;BME280;4706;41.844;26.082;2023-08-20T12:55:20;100470.53;;;40.23;21.72
9335;BME280;4706;41.844;26.082;2023-08-20T12:57:54;100464.41;;;40.41;21.11
9335;BME280;4706;41.844;26.082;2023-08-20T13:00:23;100478.25;;;40.37;21.51
9335;BME280;4706;41.844;26.082;2023-08-20T13:02:53;100474.97;;;39.98;21.06
9335;BME280;4706;41.844;26.082;2023-08-20T13:05:21;100481.44;;;39.67;22.19